createdAt,value
2019-05-17T00:00:23.205Z,98667.36
2019-05-17T00:02:57.133Z,98664.47
2019-05-17T00:05:29.107Z,98661.76
2019-05-17T00:08:00.762Z,98663.98
2019-05-17T00:10:32.034Z,98655.51
2019-05-17T00:13:07.580Z,98650.92
2019-05-17T00:15:38.873Z,98651.23
2019-05-17T00:18:10.605Z,98647.62
2019-05-17T00:20:42.753Z,98650.84
2019-05-17T00:23:17.418Z,98648.12
2019-05-17T00:25:49.366Z,98637.69
2019-05-17T00:28:20.870Z,98641.69
2019-05-17T00:30:52.748Z,98639.48
2019-05-17T00:33:24.156Z,98635.13
2019-05-17T00:35:56.252Z,98639.60
2019-05-17T00:38:29.981Z,98634.78
2019-05-17T00:41:02.691Z,98630.59
2019-05-17T00:43:36.700Z,98630.91
2019-05-17T00:46:07.822Z,98631.81
2019-05-17T00:48:39.380Z,98630.53
2019-05-17T00:51:11.663Z,98388.53
2019-05-17T00:53:43.384Z,98626.56
2019-05-17T00:56:17.105Z,98624.42
2019-05-17T00:58:51.165Z,98626.25
2019-05-17T01:01:23.349Z,98588.82
2019-05-17T01:03:57.152Z,98620.03
2019-05-17T01:06:29.062Z,98623.60
2019-05-17T01:09:03.988Z,98623.20
2019-05-17T01:11:36.434Z,98620.49
2019-05-17T01:14:07.070Z,98612.28
2019-05-17T01:16:38.553Z,98611.70
2019-05-17T01:19:11.991Z,98611.55
2019-05-17T01:21:44.402Z,98609.39
2019-05-17T01:24:17.331Z,98603.11
2019-05-17T01:26:50.888Z,98607.40
2019-05-17T01:29:22.260Z,98598.52
2019-05-17T01:31:53.737Z,98603.74
2019-05-17T01:34:27.086Z,98610.41
2019-05-17T01:36:57.892Z,98603.02
2019-05-17T01:39:29.277Z,98602.80
2019-05-17T01:42:00.668Z,98594.17
2019-05-17T01:44:33.302Z,98596.20
2019-05-17T01:47:07.430Z,98590.35
2019-05-17T01:49:38.813Z,98587.42
2019-05-17T01:52:10.568Z,98583.48
2019-05-17T01:54:42.283Z,98589.42
2019-05-17T01:57:13.802Z,98583.92
2019-05-17T01:59:46.683Z,98581.97
2019-05-17T02:02:23.613Z,98583.52
2019-05-17T02:04:57.012Z,98583.15
2019-05-17T02:07:28.542Z,98581.94
2019-05-17T02:10:01.328Z,98585.02
2019-05-17T02:12:43.413Z,98541.81
2019-05-17T02:15:18.199Z,98570.42
2019-05-17T02:17:49.491Z,98572.64
2019-05-17T02:20:21.138Z,98573.34
2019-05-17T02:22:52.993Z,98575.75
2019-05-17T02:25:27.104Z,98570.19
2019-05-17T02:27:58.255Z,98567.96
2019-05-17T02:30:33.470Z,98566.59
2019-05-17T02:33:04.041Z,98568.76
2019-05-17T02:35:36.331Z,98565.19
2019-05-17T02:38:07.857Z,98575.84
2019-05-17T02:40:42.832Z,98567.41
2019-05-17T02:43:13.277Z,98564.96
2019-05-17T02:45:45.046Z,98565.25
2019-05-17T02:48:16.485Z,98568.09
2019-05-17T02:50:48.416Z,98568.52
2019-05-17T02:53:22.739Z,98559.94
2019-05-17T02:55:54.103Z,98561.18
2019-05-17T02:58:25.682Z,98562.98
2019-05-17T03:00:58.897Z,98563.77
2019-05-17T03:03:32.538Z,98567.13
2019-05-17T03:06:03.904Z,98565.36
2019-05-17T03:08:35.471Z,98560.92
2019-05-17T03:11:06.688Z,98557.50
2019-05-17T03:13:37.922Z,98557.39
2019-05-17T03:16:09.160Z,98570.53
2019-05-17T03:18:43.648Z,98566.83
2019-05-17T03:21:13.933Z,98564.04
2019-05-17T03:23:45.649Z,98560.88
2019-05-17T03:26:16.866Z,98566.95
2019-05-17T03:28:48.220Z,98567.37
2019-05-17T03:31:25.697Z,98578.39
2019-05-17T03:33:56.219Z,98571.53
2019-05-17T03:36:28.696Z,98576.78
2019-05-17T03:39:03.057Z,98571.70
2019-05-17T03:41:34.246Z,98574.31
2019-05-17T03:44:05.816Z,98576.39
2019-05-17T03:46:37.319Z,98576.95
2019-05-17T03:49:08.901Z,98585.06
2019-05-17T03:51:42.572Z,98584.11
2019-05-17T03:54:14.115Z,98594.37
2019-05-17T03:56:46.185Z,98588.95
2019-05-17T03:59:17.755Z,98588.09
2019-05-17T04:01:52.607Z,98582.88
2019-05-17T04:04:23.403Z,98590.52
2019-05-17T04:06:55.093Z,98586.84
2019-05-17T04:09:26.676Z,98595.12
2019-05-17T04:11:59.022Z,98600.14
2019-05-17T04:14:33.454Z,98599.77
2019-05-17T04:17:03.495Z,98605.50
2019-05-17T04:19:34.918Z,98600.59
2019-05-17T04:22:06.341Z,98599.63
2019-05-17T04:24:38.005Z,98606.02
2019-05-17T04:27:09.549Z,98601.69
2019-05-17T04:29:42.528Z,98606.95
2019-05-17T04:32:14.545Z,98610.54
2019-05-17T04:34:47.266Z,98613.42
2019-05-17T04:37:22.622Z,98613.34
2019-05-17T04:39:53.148Z,98617.71
2019-05-17T04:42:25.352Z,98608.40
2019-05-17T04:44:58.262Z,98611.00
2019-05-17T04:47:33.287Z,98611.09
2019-05-17T04:50:17.144Z,98611.22
2019-05-17T04:52:48.732Z,98615.02
2019-05-17T04:55:23.193Z,98619.91
2019-05-17T04:57:55.495Z,98619.09
2019-05-17T05:00:27.100Z,98614.39
2019-05-17T05:02:58.815Z,98620.23
2019-05-17T05:05:33.081Z,98620.48
2019-05-17T05:08:03.824Z,98623.31
2019-05-17T05:10:38.403Z,98617.75
2019-05-17T05:13:08.872Z,98628.44
2019-05-17T05:15:44.011Z,98467.81
2019-05-17T05:18:16.220Z,98624.47
2019-05-17T05:20:48.045Z,98624.20
2019-05-17T05:23:23.551Z,98624.95
2019-05-17T05:25:53.132Z,98633.70
2019-05-17T05:28:24.572Z,98624.84
2019-05-17T05:30:56.486Z,98627.78
2019-05-17T05:33:28.176Z,98635.68
2019-05-17T05:36:02.016Z,98626.61
2019-05-17T05:38:33.285Z,98635.11
2019-05-17T05:41:04.812Z,98628.22
2019-05-17T05:43:36.746Z,98628.75
2019-05-17T05:46:08.891Z,98632.52
2019-05-17T05:48:41.600Z,98635.52
2019-05-17T05:51:13.909Z,98635.85
2019-05-17T05:53:47.044Z,98478.19
2019-05-17T05:56:18.679Z,98639.69
2019-05-17T05:58:52.187Z,98636.44
2019-05-17T06:01:23.057Z,98628.22
2019-05-17T06:03:54.529Z,98626.61
2019-05-17T06:06:28.166Z,98630.33
2019-05-17T06:08:59.362Z,98634.38
2019-05-17T06:11:32.180Z,98629.27
2019-05-17T06:14:05.772Z,98629.44
2019-05-17T06:16:37.105Z,98637.73
2019-05-17T06:19:08.973Z,98635.83
2019-05-17T06:21:42.530Z,98630.94
2019-05-17T06:24:13.330Z,98632.62
2019-05-17T06:26:45.077Z,98641.96
2019-05-17T06:29:16.849Z,98646.20
2019-05-17T06:31:48.711Z,98641.05
2019-05-17T06:34:22.339Z,98630.28
2019-05-17T06:36:53.869Z,98635.81
2019-05-17T06:39:25.294Z,98637.30
2019-05-17T06:41:56.555Z,98638.86
2019-05-17T06:44:27.756Z,98630.04
2019-05-17T06:46:59.173Z,98636.91
2019-05-17T06:49:31.828Z,98631.52
2019-05-17T06:52:03.252Z,98632.29
2019-05-17T06:54:34.926Z,98628.14
2019-05-17T06:57:07.491Z,98630.50
2019-05-17T06:59:38.872Z,98624.19
2019-05-17T07:02:10.570Z,98620.94
2019-05-17T07:04:42.263Z,98624.75
2019-05-17T07:07:30.944Z,98626.00
2019-05-17T07:10:02.688Z,98622.41
2019-05-17T07:12:55.951Z,98614.77
2019-05-17T07:15:19.885Z,98622.13
2019-05-17T07:17:51.235Z,98626.27
2019-05-17T07:20:23.263Z,98629.28
2019-05-17T07:22:54.834Z,98631.71
2019-05-17T07:25:26.758Z,98630.20
2019-05-17T07:28:00.447Z,98636.41
2019-05-17T07:30:31.967Z,98633.05
2019-05-17T07:33:05.371Z,98630.41
2019-05-17T07:35:39.611Z,98627.61
2019-05-17T07:38:11.163Z,98632.83
2019-05-17T07:40:42.555Z,98632.45
2019-05-17T07:43:16.008Z,98621.45
2019-05-17T07:45:49.506Z,98621.16
2019-05-17T07:48:21.738Z,98617.72
2019-05-17T07:50:53.526Z,98614.77
2019-05-17T07:53:25.387Z,98608.72
2019-05-17T07:55:59.471Z,98613.73
2019-05-17T07:58:30.493Z,98608.56
2019-05-17T08:01:02.439Z,98611.11
2019-05-17T08:03:34.636Z,98604.13
2019-05-17T08:06:05.918Z,98602.77
2019-05-17T08:08:37.167Z,98602.93
2019-05-17T08:11:10.587Z,98606.89
2019-05-17T08:13:42.059Z,98600.72
2019-05-17T08:16:13.611Z,98603.81
2019-05-17T08:18:45.257Z,98596.66
2019-05-17T08:21:19.715Z,98590.97
2019-05-17T08:23:51.055Z,98594.38
2019-05-17T08:26:23.997Z,98589.38
2019-05-17T08:28:55.750Z,98588.45
2019-05-17T08:31:29.436Z,98584.26
2019-05-17T08:34:02.422Z,98572.78
2019-05-17T08:36:33.826Z,98572.49
2019-05-17T08:39:10.235Z,98578.82
2019-05-17T08:41:41.688Z,98577.11
2019-05-17T08:44:13.347Z,98571.10
2019-05-17T08:46:44.850Z,98570.89
2019-05-17T08:49:16.146Z,98571.66
2019-05-17T08:51:50.009Z,98567.17
2019-05-17T08:54:22.151Z,98564.03
2019-05-17T08:56:54.316Z,98569.13
2019-05-17T08:59:25.595Z,98562.22
2019-05-17T09:01:57.133Z,98562.35
2019-05-17T09:04:29.728Z,98562.97
2019-05-17T09:07:03.204Z,98569.58
2019-05-17T09:09:36.735Z,98559.08
2019-05-17T09:12:10.999Z,98560.14
2019-05-17T09:14:42.501Z,98560.78
2019-05-17T09:17:14.621Z,98565.47
2019-05-17T09:19:46.100Z,98424.49
2019-05-17T09:22:22.194Z,98552.54
2019-05-17T09:24:53.620Z,98560.16
2019-05-17T09:27:25.413Z,98558.59
2019-05-17T09:29:59.887Z,98568.59
2019-05-17T09:32:31.521Z,98555.10
2019-05-17T09:35:13.195Z,98552.64
2019-05-17T09:37:49.870Z,98563.39
2019-05-17T09:40:20.885Z,98551.07
2019-05-17T09:42:52.686Z,98547.39
2019-05-17T09:45:24.400Z,98551.39
2019-05-17T09:47:56.611Z,98544.19
2019-05-17T09:50:29.408Z,98539.84
2019-05-17T09:53:01.339Z,98547.25
2019-05-17T09:55:34.833Z,98540.19
2019-05-17T09:58:06.107Z,98537.58
2019-05-17T10:00:38.427Z,98533.09
2019-05-17T10:03:10.095Z,98533.22
2019-05-17T10:05:41.933Z,98531.55
2019-05-17T10:08:13.168Z,98532.30
2019-05-17T10:11:06.068Z,98524.20
2019-05-17T10:13:29.647Z,98524.09
2019-05-17T10:16:01.887Z,98516.63
2019-05-17T10:18:33.202Z,98514.72
2019-05-17T10:21:04.723Z,98522.17
2019-05-17T10:23:36.938Z,98519.16
2019-05-17T10:26:10.222Z,98526.16
2019-05-17T10:28:42.542Z,98527.16
2019-05-17T10:31:14.487Z,98526.90
2019-05-17T10:33:46.088Z,98523.47
2019-05-17T10:36:20.271Z,98515.61
2019-05-17T10:38:52.294Z,98512.55
2019-05-17T10:41:24.186Z,98518.09
2019-05-17T10:43:55.919Z,98525.24
2019-05-17T10:46:29.972Z,98512.31
2019-05-17T10:49:01.494Z,98517.05
2019-05-17T10:51:32.879Z,98523.57
2019-05-17T10:54:04.615Z,98512.60
2019-05-17T10:56:35.958Z,98515.99
2019-05-17T10:59:09.829Z,98515.77
2019-05-17T11:01:41.326Z,98527.40
2019-05-17T11:04:12.822Z,98518.21
2019-05-17T11:06:44.145Z,98522.13
2019-05-17T11:09:15.379Z,98510.07
2019-05-17T11:11:47.005Z,98506.16
2019-05-17T11:14:18.300Z,98500.08
2019-05-17T11:16:49.498Z,98504.74
2019-05-17T11:19:21.944Z,98498.45
2019-05-17T11:21:54.403Z,98505.60
2019-05-17T11:24:25.767Z,98496.73
2019-05-17T11:27:01.389Z,98504.60
2019-05-17T11:29:32.762Z,98504.56
2019-05-17T11:32:04.922Z,98503.95
2019-05-17T11:34:36.268Z,98501.11
2019-05-17T11:37:08.823Z,98498.23
2019-05-17T11:39:40.150Z,98495.19
2019-05-17T11:42:11.975Z,98497.51
2019-05-17T11:44:47.225Z,98499.16
2019-05-17T11:47:19.403Z,98504.69
2019-05-17T11:49:51.640Z,98496.39
2019-05-17T11:52:23.406Z,98491.38
2019-05-17T11:54:55.293Z,98488.81
2019-05-17T11:57:27.551Z,98488.16
2019-05-17T11:59:59.618Z,98484.30
2019-05-17T12:02:32.163Z,98487.91
2019-05-17T12:05:15.092Z,98485.38
2019-05-17T12:07:46.808Z,98493.33
2019-05-17T12:10:19.562Z,98489.41
2019-05-17T12:12:52.212Z,98495.82
2019-05-17T12:15:24.000Z,98488.20
2019-05-17T12:17:57.897Z,98478.94
2019-05-17T12:20:30.005Z,98492.77
2019-05-17T12:23:01.899Z,98479.13
2019-05-17T12:25:33.166Z,98490.66
2019-05-17T12:28:04.580Z,98491.49
2019-05-17T12:30:35.954Z,98491.03
2019-05-17T12:33:07.347Z,98489.02
2019-05-17T12:35:39.010Z,98475.77
2019-05-17T12:38:11.758Z,98483.42
2019-05-17T12:40:43.419Z,98482.56
2019-05-17T12:43:15.123Z,98478.36
2019-05-17T12:46:00.339Z,98473.50
2019-05-17T12:48:22.353Z,98483.94
2019-05-17T12:50:53.834Z,98466.41
2019-05-17T12:53:27.259Z,98476.48
2019-05-17T12:56:01.044Z,98471.17
2019-05-17T12:58:35.921Z,98475.27
2019-05-17T13:01:07.390Z,98469.94
2019-05-17T13:03:38.896Z,98467.59
2019-05-17T13:06:10.508Z,98474.73
2019-05-17T13:08:42.420Z,98470.42
2019-05-17T13:11:14.306Z,98468.61
2019-05-17T13:13:46.874Z,98460.97
2019-05-17T13:16:19.371Z,98460.84
2019-05-17T13:18:51.037Z,98454.42
2019-05-17T13:21:22.436Z,98460.77
2019-05-17T13:23:56.095Z,98452.50
2019-05-17T13:26:27.337Z,98443.70
2019-05-17T13:28:59.160Z,98456.20
2019-05-17T13:31:30.527Z,98450.53
2019-05-17T13:34:02.231Z,98451.00
2019-05-17T13:36:34.657Z,98453.09
2019-05-17T13:39:08.406Z,98454.97
2019-05-17T13:41:40.920Z,98457.53
2019-05-17T13:44:14.412Z,98448.38
2019-05-17T13:46:46.904Z,98450.50
2019-05-17T13:49:20.122Z,98452.72
2019-05-17T13:51:52.041Z,98436.69
2019-05-17T13:54:24.318Z,98463.11
2019-05-17T13:56:55.847Z,98445.51
2019-05-17T13:59:27.392Z,98447.64
2019-05-17T14:01:58.741Z,98443.44
2019-05-17T14:04:31.041Z,98436.44
2019-05-17T14:07:03.297Z,98446.33
2019-05-17T14:09:35.801Z,98452.11
2019-05-17T14:12:08.417Z,98445.17
2019-05-17T14:14:39.941Z,98445.30
2019-05-17T14:17:11.841Z,98443.71
2019-05-17T14:19:44.249Z,98444.22
2019-05-17T14:22:17.177Z,98446.37
2019-05-17T14:24:49.404Z,98443.70
2019-05-17T14:27:21.413Z,98443.92
2019-05-17T14:29:54.047Z,98447.30
2019-05-17T14:32:27.198Z,98442.11
2019-05-17T14:34:59.740Z,98443.21
2019-05-17T14:37:39.952Z,98430.23
2019-05-17T14:40:16.892Z,98441.68
2019-05-17T14:42:48.471Z,98446.98
2019-05-17T14:45:20.077Z,98453.52
2019-05-17T14:47:52.166Z,98449.70
2019-05-17T14:50:23.959Z,98449.03
2019-05-17T14:52:55.835Z,98452.64
2019-05-17T14:55:28.365Z,98467.81
2019-05-17T14:58:00.636Z,98453.77
2019-05-17T15:00:32.567Z,98453.19
2019-05-17T15:03:07.300Z,98449.62
2019-05-17T15:05:38.090Z,98456.86
2019-05-17T15:08:09.803Z,98224.87
2019-05-17T15:10:41.867Z,98460.93
2019-05-17T15:13:13.461Z,98457.36
2019-05-17T15:15:44.974Z,98456.47
2019-05-17T15:18:16.633Z,98458.22
2019-05-17T15:20:49.002Z,98447.16
2019-05-17T15:23:20.770Z,98449.92
2019-05-17T15:25:52.637Z,98450.91
2019-05-17T15:28:24.312Z,98440.84
2019-05-17T15:30:55.829Z,98453.07
2019-05-17T15:33:30.313Z,98445.97
2019-05-17T15:36:01.941Z,98436.05
2019-05-17T15:38:33.423Z,98445.71
2019-05-17T15:41:05.517Z,98444.11
2019-05-17T15:43:36.775Z,98438.21
2019-05-17T15:46:08.418Z,98438.21
2019-05-17T15:48:39.897Z,98441.06
2019-05-17T15:51:11.250Z,98436.26
2019-05-17T15:53:43.515Z,98429.00
2019-05-17T15:56:16.495Z,98435.66
2019-05-17T15:58:48.218Z,98426.12
2019-05-17T16:01:19.548Z,98427.46
2019-05-17T16:03:51.358Z,98425.27
2019-05-17T16:06:23.186Z,98426.71
2019-05-17T16:08:54.724Z,98430.84
2019-05-17T16:11:26.970Z,98424.78
2019-05-17T16:13:59.036Z,98433.98
2019-05-17T16:16:30.359Z,98428.17
2019-05-17T16:19:04.289Z,98428.04
2019-05-17T16:21:36.123Z,98421.40
2019-05-17T16:24:08.005Z,98424.23
2019-05-17T16:26:39.821Z,98418.44
2019-05-17T16:29:11.151Z,98414.24
2019-05-17T16:31:42.528Z,98282.70
2019-05-17T16:34:14.369Z,98419.84
2019-05-17T16:36:47.233Z,98418.09
2019-05-17T16:39:21.125Z,98426.17
2019-05-17T16:41:52.787Z,98421.81
2019-05-17T16:44:24.273Z,98412.17
2019-05-17T16:46:55.632Z,98416.70
2019-05-17T16:49:30.014Z,98429.27
2019-05-17T16:52:02.174Z,98429.95
2019-05-17T16:54:33.765Z,98428.91
2019-05-17T16:57:05.343Z,98431.81
2019-05-17T16:59:37.501Z,98425.97
2019-05-17T17:02:09.511Z,98436.22
2019-05-17T17:04:41.410Z,98437.03
2019-05-17T17:07:13.222Z,98427.25
2019-05-17T17:09:45.664Z,98429.34
2019-05-17T17:12:17.297Z,98429.80
2019-05-17T17:14:56.905Z,98438.28
2019-05-17T17:17:28.417Z,98435.97
2019-05-17T17:20:00.197Z,98449.00
2019-05-17T17:22:31.713Z,98448.41
2019-05-17T17:25:14.322Z,98445.41
2019-05-17T17:27:46.111Z,98447.56
2019-05-17T17:30:17.675Z,98435.34
2019-05-17T17:32:49.061Z,98445.04
2019-05-17T17:35:20.728Z,98440.78
2019-05-17T17:37:52.151Z,98433.83
2019-05-17T17:40:24.871Z,98435.92
2019-05-17T17:42:56.453Z,98443.27
2019-05-17T17:45:28.432Z,98440.05
2019-05-17T17:48:00.049Z,98431.55
2019-05-17T17:50:31.817Z,98439.25
2019-05-17T17:53:13.319Z,98441.38
2019-05-17T17:55:55.192Z,98439.75
2019-05-17T17:58:26.763Z,98438.89
2019-05-17T18:00:58.338Z,98442.80
2019-05-17T18:03:46.459Z,98440.13
2019-05-17T18:06:19.230Z,98445.47
2019-05-17T18:08:51.709Z,98439.33
2019-05-17T18:11:23.191Z,98436.75
2019-05-17T18:13:55.923Z,98435.19
2019-05-17T18:16:27.545Z,98439.75
2019-05-17T18:18:59.073Z,98436.25
2019-05-17T18:21:30.540Z,98435.94
2019-05-17T18:24:02.092Z,98438.20
2019-05-17T18:26:34.102Z,98442.17
2019-05-17T18:29:07.921Z,98446.47
2019-05-17T18:31:39.471Z,98431.25
2019-05-17T18:34:10.865Z,98435.46
2019-05-17T18:36:44.813Z,98433.36
2019-05-17T18:39:16.483Z,98436.02
2019-05-17T18:41:48.020Z,98441.08
2019-05-17T18:44:27.234Z,98445.22
2019-05-17T18:46:53.101Z,98438.12
2019-05-17T18:49:24.740Z,98449.27
2019-05-17T18:51:56.792Z,98451.83
2019-05-17T18:54:28.647Z,98452.19
2019-05-17T18:57:00.393Z,98452.14
2019-05-17T18:59:31.978Z,98456.88
2019-05-17T19:02:04.433Z,98457.61
2019-05-17T19:04:35.780Z,98308.88
2019-05-17T19:07:08.218Z,98455.55
2019-05-17T19:09:41.406Z,98463.54
2019-05-17T19:12:16.314Z,98456.25
2019-05-17T19:15:00.514Z,98460.94
2019-05-17T19:17:31.237Z,98461.61
2019-05-17T19:20:03.199Z,98459.09
2019-05-17T19:22:46.598Z,98466.52
2019-05-17T19:25:18.388Z,98467.47
2019-05-17T19:27:51.069Z,98468.58
2019-05-17T19:30:23.037Z,98472.84
2019-05-17T19:32:54.583Z,98475.90
2019-05-17T19:35:26.077Z,98469.20
2019-05-17T19:37:57.552Z,98470.78
2019-05-17T19:40:29.545Z,98477.20
2019-05-17T19:43:01.135Z,98478.61
2019-05-17T19:45:32.700Z,98478.25
2019-05-17T19:48:04.245Z,98471.20
2019-05-17T19:50:35.854Z,98474.30
2019-05-17T19:53:07.645Z,98473.24
2019-05-17T19:55:39.022Z,98468.45
2019-05-17T19:58:11.511Z,98466.36
2019-05-17T20:00:42.923Z,98472.98
2019-05-17T20:03:16.828Z,98463.95
2019-05-17T20:05:48.644Z,98465.25
2019-05-17T20:08:20.220Z,98467.89
2019-05-17T20:10:52.458Z,98470.69
2019-05-17T20:13:24.317Z,98463.86
2019-05-17T20:15:55.962Z,98461.96
2019-05-17T20:18:27.505Z,98462.93
2019-05-17T20:20:58.898Z,98461.28
2019-05-17T20:23:30.316Z,98472.12
2019-05-17T20:26:01.691Z,98462.98
2019-05-17T20:28:33.263Z,98469.98
2019-05-17T20:31:05.090Z,98470.09
2019-05-17T20:33:37.003Z,98464.37
2019-05-17T20:36:09.080Z,98463.58
2019-05-17T20:38:40.694Z,98462.69
2019-05-17T20:41:12.501Z,98464.86
2019-05-17T20:43:44.292Z,98464.41
2019-05-17T20:46:15.501Z,98460.73
2019-05-17T20:48:46.924Z,98459.34
2019-05-17T20:51:18.459Z,98463.39
2019-05-17T20:53:49.876Z,98464.06
2019-05-17T20:56:32.369Z,98453.52
2019-05-17T20:58:56.681Z,98449.09
2019-05-17T21:01:28.508Z,98449.09
2019-05-17T21:03:59.867Z,98455.22
2019-05-17T21:06:31.384Z,98455.31
2019-05-17T21:09:02.630Z,98454.36
2019-05-17T21:11:34.053Z,98458.23
2019-05-17T21:14:05.444Z,98454.55
2019-05-17T21:16:36.704Z,98454.91
2019-05-17T21:19:08.032Z,98459.91
2019-05-17T21:21:41.471Z,98457.00
2019-05-17T21:24:13.154Z,98452.20
2019-05-17T21:26:46.270Z,98454.56
2019-05-17T21:29:17.527Z,98455.02
2019-05-17T21:31:48.751Z,98450.52
2019-05-17T21:34:20.988Z,98454.73
2019-05-17T21:36:52.713Z,98453.97
2019-05-17T21:39:24.137Z,98456.13
2019-05-17T21:41:55.946Z,98461.52
2019-05-17T21:44:27.418Z,98454.54
2019-05-17T21:47:04.794Z,98446.44
2019-05-17T21:49:32.422Z,98451.16
2019-05-17T21:52:04.203Z,98450.98
2019-05-17T21:54:35.934Z,98447.47
2019-05-17T21:57:07.784Z,98448.61
2019-05-17T21:59:39.476Z,98446.25
2019-05-17T22:02:11.442Z,98438.53
2019-05-17T22:04:45.038Z,98449.26
2019-05-17T22:07:16.455Z,98445.40
2019-05-17T22:09:48.237Z,98444.54
2019-05-17T22:12:29.417Z,98441.64
2019-05-17T22:15:19.004Z,98440.59
2019-05-17T22:18:27.872Z,98437.20
2019-05-17T22:20:59.481Z,98440.31
2019-05-17T22:24:07.307Z,98440.64
2019-05-17T22:26:44.738Z,98438.83
2019-05-17T22:29:16.179Z,98435.70
2019-05-17T22:31:49.113Z,98428.63
2019-05-17T22:34:20.687Z,98435.16
2019-05-17T22:36:52.148Z,98431.77
2019-05-17T22:39:23.974Z,98437.33
2019-05-17T22:41:55.657Z,98436.75
2019-05-17T22:44:27.993Z,98431.36
2019-05-17T22:46:59.661Z,98429.56
2019-05-17T22:49:31.202Z,98429.16
2019-05-17T22:52:02.612Z,98419.23
2019-05-17T22:54:34.093Z,98424.77
2019-05-17T22:57:05.797Z,98424.12
2019-05-17T22:59:37.139Z,98413.48
2019-05-17T23:02:09.166Z,98427.62
2019-05-17T23:04:41.227Z,98422.31
2019-05-17T23:07:12.726Z,98411.69
2019-05-17T23:09:48.359Z,98421.04
2019-05-17T23:12:19.684Z,98417.26
2019-05-17T23:14:51.071Z,98410.63
2019-05-17T23:17:25.272Z,98413.80
2019-05-17T23:19:56.820Z,98415.69
2019-05-17T23:22:29.108Z,98411.77
2019-05-17T23:25:01.491Z,98412.94
2019-05-17T23:27:43.469Z,98412.36
2019-05-17T23:30:18.321Z,98416.43
2019-05-17T23:32:49.639Z,98412.19
2019-05-17T23:35:21.245Z,98407.58
2019-05-17T23:37:52.979Z,98411.73
2019-05-17T23:40:24.219Z,98407.30
2019-05-17T23:42:55.505Z,98402.92
2019-05-17T23:45:27.222Z,98397.66
2019-05-17T23:47:58.542Z,98396.27
2019-05-17T23:50:31.230Z,98394.49
2019-05-17T23:53:02.464Z,98398.73
2019-05-17T23:55:34.724Z,98404.25
2019-05-17T23:58:06.298Z,98402.31
